Time;durP1;ratioP1;P1;durP2;ratioP2;P2;SDS_P1;SDS_P2;PMS_P1;PMS_P2;Temp;Humidity;BMP_temperature;BMP_pressure;BME280_temperature;BME280_humidity;BME280_pressure;Samples;Min_cycle;Max_cycle;Signal;HPM_P1;HPM_P2
2024/02/19 19:00:08;;;;;;;5.22;2.28;;;;;;;11.76;100.00;101296.78;6145294;22;20397;-67
2024/02/19 19:02:35;;;;;;;10.20;2.40;;;;;;;11.76;100.00;101301.38;6095486;23;20031;-69
2024/02/19 19:05:01;;;;;;;3.55;2.00;;;;;;;11.69;100.00;101299.28;6185918;23;20008;-67
2024/02/19 19:07:26;;;;;;;7.00;2.38;;;;;;;11.81;100.00;101289.56;6172952;23;20027;-66
2024/02/19 19:09:52;;;;;;;5.10;2.53;;;;;;;11.70;100.00;101305.47;6166421;22;20078;-68
2024/02/19 19:12:18;;;;;;;12.50;2.65;;;;;;;11.75;100.00;101306.00;6262035;22;20007;-68
2024/02/19 19:14:46;;;;;;;3.30;2.03;;;;;;;11.68;100.00;101299.63;6260298;22;20038;-69
2024/02/19 19:17:12;;;;;;;5.30;2.17;;;;;;;11.60;100.00;101303.22;6161827;22;20486;-69
2024/02/19 19:19:40;;;;;;;5.88;1.73;;;;;;;11.69;100.00;101303.91;5919476;23;20109;-70
2024/02/19 19:22:06;;;;;;;5.75;2.50;;;;;;;11.73;100.00;101300.16;5672843;24;20034;-69
2024/02/19 19:24:32;;;;;;;4.38;2.35;;;;;;;11.71;100.00;101296.25;5727539;24;20479;-70
2024/02/19 19:27:01;;;;;;;4.05;1.92;;;;;;;11.50;100.00;101290.25;5737409;24;20073;-70
2024/02/19 19:29:26;;;;;;;4.45;2.25;;;;;;;11.52;100.00;101296.06;5728164;24;20361;-68
2024/02/19 19:31:51;;;;;;;2.95;1.75;;;;;;;11.44;100.00;101294.34;5766663;24;20024;-71
2024/02/19 19:34:17;;;;;;;7.60;2.22;;;;;;;11.36;100.00;101295.28;5726034;24;19999;-68
2024/02/19 19:36:43;;;;;;;4.30;1.80;;;;;;;11.44;100.00;101297.81;5749075;24;20604;-68
2024/02/19 19:39:08;;;;;;;3.25;1.95;;;;;;;11.51;100.00;101302.63;5759985;24;20016;-68
2024/02/19 19:41:36;;;;;;;6.47;1.88;;;;;;;11.36;100.00;101296.03;5741145;24;20073;-70
2024/02/19 19:44:05;;;;;;;3.10;1.52;;;;;;;11.33;100.00;101295.94;5750802;24;20050;-68
2024/02/19 19:46:32;;;;;;;3.85;2.22;;;;;;;11.42;100.00;101304.69;5767573;24;20023;-68
2024/02/19 19:48:58;;;;;;;3.30;1.67;;;;;;;11.44;100.00;101313.22;5751739;24;20012;-68
2024/02/19 19:51:23;;;;;;;1.83;1.40;;;;;;;11.12;100.00;101316.91;5749525;24;20031;-69
2024/02/19 19:53:49;;;;;;;6.78;1.58;;;;;;;11.12;100.00;101304.22;5744255;24;20532;-68
2024/02/19 19:56:16;;;;;;;3.08;1.58;;;;;;;11.38;100.00;101304.56;5754395;24;20023;-68
2024/02/19 19:58:41;;;;;;;2.78;1.63;;;;;;;11.31;100.00;101312.47;5752670;24;20020;-68
2024/02/19 20:01:10;;;;;;;4.93;1.55;;;;;;;11.26;100.00;101307.34;5742925;24;20023;-69
2024/02/19 20:03:36;;;;;;;4.68;1.90;;;;;;;11.23;100.00;101310.69;5746752;24;20635;-70
2024/02/19 20:06:03;;;;;;;3.38;2.03;;;;;;;11.27;100.00;101303.50;5736704;24;20020;-68
2024/02/19 20:08:29;;;;;;;3.00;1.60;;;;;;;11.21;100.00;101317.53;5722701;24;20991;-70
2024/02/19 20:10:55;;;;;;;4.45;1.60;;;;;;;11.27;100.00;101313.50;5713209;24;20402;-68
2024/02/19 20:13:20;;;;;;;4.63;1.45;;;;;;;11.32;100.00;101313.25;5715527;24;20016;-70
2024/02/19 20:15:46;;;;;;;5.72;1.35;;;;;;;11.35;100.00;101317.97;5725925;24;20039;-69
2024/02/19 20:18:12;;;;;;;1.50;1.38;;;;;;;11.47;100.00;101313.31;5769874;24;20926;-69
2024/02/19 20:20:38;;;;;;;3.13;1.58;;;;;;;11.42;100.00;101310.09;5791529;23;1311237;-68
2024/02/19 20:23:04;;;;;;;3.47;1.83;;;;;;;11.36;100.00;101316.84;5820081;24;20089;-70
2024/02/19 20:25:30;;;;;;;4.13;2.00;;;;;;;11.34;100.00;101316.41;5809676;24;20022;-68
2024/02/19 20:27:55;;;;;;;6.03;1.85;;;;;;;11.32;100.00;101314.06;5808932;24;20042;-68
2024/02/19 20:30:21;;;;;;;5.47;2.08;;;;;;;11.31;100.00;101317.88;5821334;24;20513;-68
2024/02/19 20:32:46;;;;;;;2.58;1.63;;;;;;;11.43;100.00;101311.63;5822368;24;20127;-69
2024/02/19 20:35:12;;;;;;;3.00;1.95;;;;;;;11.46;100.00;101316.31;5799871;24;20010;-69
2024/02/19 20:37:38;;;;;;;3.80;2.53;;;;;;;11.36;100.00;101312.22;5797588;24;20105;-69
2024/02/19 20:40:05;;;;;;;3.50;2.05;;;;;;;11.51;100.00;101316.09;5787333;24;20365;-70
2024/02/19 20:42:34;;;;;;;4.68;1.88;;;;;;;11.45;100.00;101318.25;5800527;24;20982;-70
2024/02/19 20:45:00;;;;;;;4.03;2.20;;;;;;;11.50;100.00;101312.59;5812641;24;20023;-69
2024/02/19 20:47:28;;;;;;;3.78;1.75;;;;;;;11.55;100.00;101316.97;5800013;24;20028;-68
2024/02/19 20:49:59;;;;;;;3.60;2.10;;;;;;;11.58;100.00;101318.97;5812615;24;20462;-68
2024/02/19 20:52:25;;;;;;;7.15;2.08;;;;;;;11.34;100.00;101324.50;5793399;24;20014;-68
2024/02/19 20:54:54;;;;;;;3.92;1.95;;;;;;;11.41;100.00;101320.06;5802526;24;20041;-71
2024/02/19 20:57:24;;;;;;;7.07;1.90;;;;;;;11.43;100.00;101325.13;5803631;24;20010;-70
2024/02/19 20:59:50;;;;;;;5.93;2.38;;;;;;;11.35;100.00;101320.66;5799343;24;20089;-68
2024/02/19 21:02:15;;;;;;;4.63;1.75;;;;;;;11.43;100.00;101331.31;5799069;24;20106;-69
2024/02/19 21:04:43;;;;;;;5.32;1.92;;;;;;;11.46;100.00;101329.81;5812442;24;20030;-70
2024/02/19 21:07:09;;;;;;;4.90;1.85;;;;;;;11.30;100.00;101329.00;5797986;24;20045;-70
2024/02/19 21:09:36;;;;;;;2.92;1.30;;;;;;;11.23;100.00;101324.19;5808137;24;20089;-71
2024/02/19 21:12:06;;;;;;;6.07;1.85;;;;;;;11.27;100.00;101325.06;5791557;24;20371;-70
2024/02/19 21:14:32;;;;;;;2.38;1.38;;;;;;;11.25;99.87;101327.31;5790147;24;20797;-69
2024/02/19 21:16:58;;;;;;;4.25;1.88;;;;;;;11.17;100.00;101328.22;5820176;24;20047;-68
2024/02/19 21:19:23;;;;;;;3.90;1.27;;;;;;;11.14;100.00;101322.75;5881115;23;20019;-70
2024/02/19 21:21:49;;;;;;;10.00;1.65;;;;;;;11.21;100.00;101331.03;5979074;23;20469;-70
2024/02/19 21:24:15;;;;;;;4.53;1.75;;;;;;;11.13;100.00;101326.59;5956434;23;20382;-70
2024/02/19 21:26:41;;;;;;;2.50;1.42;;;;;;;11.25;100.00;101329.22;5957360;23;20021;-71
2024/02/19 21:29:07;;;;;;;4.53;1.60;;;;;;;11.23;100.00;101326.06;5984539;23;20033;-67
2024/02/19 21:31:32;;;;;;;2.17;1.33;;;;;;;11.23;100.00;101332.25;5995842;23;20039;-70
2024/02/19 21:33:58;;;;;;;4.50;1.85;;;;;;;11.24;100.00;101331.16;5995032;23;20096;-67
2024/02/19 21:36:24;;;;;;;4.53;1.75;;;;;;;11.31;100.00;101334.03;5956181;23;20023;-69
2024/02/19 21:38:50;;;;;;;3.28;1.75;;;;;;;11.31;100.00;101327.84;5982837;23;20018;-69
2024/02/19 21:41:15;;;;;;;5.25;1.52;;;;;;;11.37;100.00;101324.59;5989764;23;20010;-69
2024/02/19 21:43:44;;;;;;;4.03;1.75;;;;;;;11.24;100.00;101327.66;5982182;23;20412;-70
2024/02/19 21:46:11;;;;;;;1.73;1.55;;;;;;;11.18;100.00;101337.91;5991314;23;20059;-67
2024/02/19 21:48:37;;;;;;;4.40;1.85;;;;;;;11.01;100.00;101329.31;6012318;23;20581;-69
2024/02/19 21:51:04;;;;;;;5.55;2.22;;;;;;;11.01;100.00;101327.41;5999368;23;20007;-70
2024/02/19 21:53:29;;;;;;;3.55;1.75;;;;;;;11.14;100.00;101325.44;5969092;23;20015;-71
2024/02/19 21:55:55;;;;;;;2.85;1.90;;;;;;;11.01;100.00;101323.91;5992344;23;20017;-71
2024/02/19 21:58:21;;;;;;;4.68;2.38;;;;;;;11.08;100.00;101321.41;5979024;23;20589;-71
2024/02/19 22:00:46;;;;;;;2.83;1.80;;;;;;;11.14;100.00;101325.44;5973423;23;20007;-68
2024/02/19 22:03:12;;;;;;;2.33;1.70;;;;;;;11.04;100.00;101324.00;6002131;23;20054;-71
2024/02/19 22:05:37;;;;;;;3.92;2.08;;;;;;;10.90;100.00;101327.06;6004052;23;20010;-68
2024/02/19 22:08:03;;;;;;;5.90;1.70;;;;;;;10.88;100.00;101323.13;6005190;23;20525;-70
2024/02/19 22:10:30;;;;;;;4.45;1.75;;;;;;;10.78;100.00;101321.69;5998134;23;20404;-71
2024/02/19 22:12:55;;;;;;;4.88;1.80;;;;;;;10.94;100.00;101315.63;6003122;23;20047;-69
2024/02/19 22:15:21;;;;;;;2.42;1.25;;;;;;;10.79;100.00;101331.38;5996111;23;20034;-70
2024/02/19 22:17:46;;;;;;;5.25;1.88;;;;;;;10.91;100.00;101333.25;6005579;23;20015;-69
2024/02/19 22:20:12;;;;;;;3.20;1.77;;;;;;;10.88;100.00;101329.31;6092500;23;20012;-71
2024/02/19 22:22:38;;;;;;;2.80;1.70;;;;;;;10.77;100.00;101336.31;6166469;23;20401;-68
2024/02/19 22:25:04;;;;;;;2.67;1.80;;;;;;;10.70;100.00;101319.16;6178010;23;19997;-71
2024/02/19 22:27:32;;;;;;;2.83;1.50;;;;;;;10.82;100.00;101327.97;6178295;23;20478;-67
2024/02/19 22:29:58;;;;;;;1.58;1.13;;;;;;;10.71;100.00;101334.97;6172461;23;20013;-67
2024/02/19 22:32:23;;;;;;;5.43;1.45;;;;;;;10.74;100.00;101330.81;6168541;23;20403;-69
2024/02/19 22:34:49;;;;;;;1.98;1.55;;;;;;;10.76;100.00;101332.03;6172364;23;20001;-68
2024/02/19 22:37:14;;;;;;;2.75;1.35;;;;;;;10.89;100.00;101336.28;6187333;23;20055;-67
2024/02/19 22:39:44;;;;;;;1.08;1.00;;;;;;;11.03;100.00;101330.53;6176727;23;20909;-67
2024/02/19 22:42:10;;;;;;;0.70;0.70;;;;;;;10.85;100.00;101338.09;6183132;23;20007;-68
2024/02/19 22:44:36;;;;;;;1.75;1.13;;;;;;;10.89;100.00;101330.13;6200191;23;20141;-68
2024/02/19 22:47:02;;;;;;;1.70;1.00;;;;;;;10.77;100.00;101336.31;6176106;23;20001;-69
2024/02/19 22:49:27;;;;;;;1.10;0.88;;;;;;;10.78;100.00;101337.88;6177438;23;20355;-67
2024/02/19 22:51:52;;;;;;;0.75;0.70;;;;;;;10.79;100.00;101334.06;6175908;23;20016;-70
2024/02/19 22:54:18;;;;;;;1.38;1.00;;;;;;;10.81;100.00;101331.81;6199134;23;20009;-68
2024/02/19 22:56:43;;;;;;;2.20;1.25;;;;;;;10.90;100.00;101331.66;6161222;23;20075;-68
2024/02/19 22:59:11;;;;;;;2.85;0.80;;;;;;;10.66;100.00;101337.09;6168630;23;20029;-68
2024/02/19 23:01:37;;;;;;;1.48;0.80;;;;;;;10.79;100.00;101341.34;6173700;23;20008;-67
2024/02/19 23:04:04;;;;;;;1.85;0.68;;;;;;;10.74;100.00;101339.66;6173314;23;20088;-71
2024/02/19 23:06:30;;;;;;;2.78;0.93;;;;;;;10.86;100.00;101345.03;6186064;23;20514;-68
2024/02/19 23:08:56;;;;;;;1.58;0.77;;;;;;;10.73;100.00;101338.09;6175484;23;20100;-68
2024/02/19 23:11:21;;;;;;;0.90;0.60;;;;;;;10.50;100.00;101349.66;6169094;23;20103;-68
2024/02/19 23:13:47;;;;;;;1.08;0.80;;;;;;;10.63;100.00;101346.63;6170611;23;20128;-66
2024/02/19 23:16:12;;;;;;;0.63;0.50;;;;;;;10.52;100.00;101348.22;6172432;23;20001;-66
2024/02/19 23:18:38;;;;;;;1.38;0.80;;;;;;;10.40;100.00;101344.72;6161862;23;20009;-68
2024/02/19 23:21:04;;;;;;;1.75;0.57;;;;;;;10.49;100.00;101350.81;6196250;23;20457;-65
2024/02/19 23:23:29;;;;;;;0.50;0.45;;;;;;;10.56;100.00;101343.72;6213428;23;20031;-66
2024/02/19 23:25:56;;;;;;;0.20;0.20;;;;;;;10.53;100.00;101351.72;6221486;23;20064;-66
2024/02/19 23:28:21;;;;;;;0.55;0.50;;;;;;;10.63;100.00;101354.72;6220174;23;20008;-65
2024/02/19 23:30:47;;;;;;;0.43;0.40;;;;;;;10.81;100.00;101360.66;6195640;23;20055;-70
2024/02/19 23:33:13;;;;;;;1.10;0.60;;;;;;;10.89;100.00;101352.47;6218012;23;20016;-68
2024/02/19 23:35:38;;;;;;;0.57;0.57;;;;;;;10.89;100.00;101362.44;6221365;23;20000;-68
2024/02/19 23:38:04;;;;;;;1.20;0.55;;;;;;;10.85;100.00;101356.97;6220992;23;20023;-69
2024/02/19 23:40:30;;;;;;;1.92;0.82;;;;;;;10.71;100.00;101366.50;6222078;23;20438;-71
2024/02/19 23:42:55;;;;;;;4.95;0.68;;;;;;;10.42;100.00;101364.81;6230056;23;20904;-68
2024/02/19 23:45:21;;;;;;;0.70;0.60;;;;;;;10.41;100.00;101371.34;6239734;23;20312;-68
2024/02/19 23:47:47;;;;;;;1.60;1.02;;;;;;;10.39;100.00;101373.56;6239101;23;20043;-68
2024/02/19 23:50:12;;;;;;;0.55;0.52;;;;;;;10.45;100.00;101366.06;6248676;23;20027;-68
2024/02/19 23:52:41;;;;;;;0.50;0.40;;;;;;;10.38;100.00;101368.50;6222858;23;20048;-70
2024/02/19 23:55:13;;;;;;;0.65;0.65;;;;;;;10.46;100.00;101371.09;6193893;23;20004;-68
2024/02/19 23:57:38;;;;;;;0.65;0.50;;;;;;;10.42;100.00;101370.19;6242739;23;20095;-65
